createdAt,value
2022-12-06T00:00:03.363Z,3.60
2022-12-06T00:02:32.591Z,3.60
2022-12-06T00:05:00.469Z,3.73
2022-12-06T00:07:28.369Z,4.93
2022-12-06T00:09:56.310Z,3.50
2022-12-06T00:12:24.379Z,3.85
2022-12-06T00:14:52.177Z,3.70
2022-12-06T00:17:20.273Z,4.15
2022-12-06T00:19:49.508Z,4.27
2022-12-06T00:22:17.401Z,3.60
2022-12-06T00:24:45.230Z,4.37
2022-12-06T00:27:13.085Z,4.50
2022-12-06T00:29:41.090Z,4.20
2022-12-06T00:32:08.983Z,3.63
2022-12-06T00:34:36.895Z,3.70
2022-12-06T00:37:06.082Z,4.20
2022-12-06T00:39:33.994Z,4.20
2022-12-06T00:42:01.804Z,4.40
2022-12-06T00:44:29.642Z,4.33
2022-12-06T00:46:57.544Z,3.80
2022-12-06T00:49:25.415Z,4.20
2022-12-06T00:51:53.276Z,3.20
2022-12-06T00:54:22.469Z,4.20
2022-12-06T00:56:50.314Z,3.47
2022-12-06T00:59:18.327Z,3.60
2022-12-06T01:01:46.259Z,4.20
2022-12-06T01:04:14.185Z,3.80
2022-12-06T01:06:42.052Z,3.93
2022-12-06T01:09:11.719Z,4.03
2022-12-06T01:11:41.109Z,4.20
2022-12-06T01:14:09.166Z,4.03
2022-12-06T01:16:37.093Z,3.70
2022-12-06T01:19:06.737Z,4.23
2022-12-06T01:21:34.707Z,4.22
2022-12-06T01:24:02.556Z,3.60
2022-12-06T01:26:32.742Z,4.40
2022-12-06T01:29:02.952Z,4.07
2022-12-06T01:31:37.680Z,4.33
2022-12-06T01:34:06.064Z,4.07
2022-12-06T01:36:33.997Z,3.70
2022-12-06T01:39:06.569Z,4.70
2022-12-06T01:41:34.771Z,4.43
2022-12-06T01:44:05.744Z,4.37
2022-12-06T01:46:37.302Z,4.13
2022-12-06T01:49:11.300Z,4.30
2022-12-06T01:51:41.884Z,4.50
2022-12-06T01:54:11.863Z,4.37
2022-12-06T01:56:41.078Z,4.10
2022-12-06T01:59:11.356Z,4.13
2022-12-06T02:01:41.326Z,3.87
2022-12-06T02:04:09.742Z,4.00
2022-12-06T02:06:39.945Z,3.67
2022-12-06T02:09:10.018Z,3.93
2022-12-06T02:11:38.680Z,4.57
2022-12-06T02:14:11.985Z,4.10
2022-12-06T02:16:52.653Z,4.05
2022-12-06T02:19:39.519Z,4.40
2022-12-06T02:22:13.922Z,4.20
2022-12-06T02:25:10.472Z,4.10
2022-12-06T02:28:05.661Z,4.00
2022-12-06T02:30:43.997Z,4.50
2022-12-06T02:33:21.444Z,3.93
2022-12-06T02:35:53.518Z,3.90
2022-12-06T02:38:26.897Z,3.60
2022-12-06T02:40:58.547Z,3.97
2022-12-06T02:43:31.915Z,3.90
2022-12-06T02:46:04.346Z,3.92
2022-12-06T02:48:34.019Z,3.83
2022-12-06T02:51:05.632Z,4.20
2022-12-06T02:53:37.959Z,4.25
2022-12-06T02:56:06.626Z,4.00
2022-12-06T02:58:35.967Z,3.90
2022-12-06T03:01:07.696Z,3.97
2022-12-06T03:03:49.203Z,4.40
2022-12-06T03:06:46.855Z,4.43
2022-12-06T03:09:25.792Z,4.30
2022-12-06T03:12:01.611Z,3.80
2022-12-06T03:14:36.593Z,4.13
2022-12-06T03:17:16.933Z,4.00
2022-12-06T03:19:48.092Z,3.87
2022-12-06T03:22:22.360Z,4.20
2022-12-06T03:24:51.757Z,4.47
2022-12-06T03:27:21.343Z,4.00
2022-12-06T03:29:54.071Z,4.27
2022-12-06T03:32:29.303Z,4.13
2022-12-06T03:35:00.967Z,4.03
2022-12-06T03:37:31.252Z,5.60
2022-12-06T03:40:05.280Z,4.73
2022-12-06T03:42:34.020Z,4.43
2022-12-06T03:45:02.832Z,4.17
2022-12-06T03:47:37.271Z,4.37
2022-12-06T03:50:10.296Z,4.67
2022-12-06T03:52:39.923Z,4.87
2022-12-06T03:55:09.040Z,4.07
2022-12-06T03:57:37.071Z,4.27
2022-12-06T04:00:10.260Z,4.40
2022-12-06T04:02:39.617Z,4.43
2022-12-06T04:05:07.835Z,4.70
2022-12-06T04:07:35.809Z,3.87
2022-12-06T04:10:03.931Z,3.40
2022-12-06T04:12:50.830Z,4.77
2022-12-06T04:15:19.930Z,4.67
2022-12-06T04:18:06.611Z,4.45
2022-12-06T04:20:49.107Z,4.40
2022-12-06T04:23:17.078Z,4.20
2022-12-06T04:25:45.054Z,4.20
2022-12-06T04:28:30.781Z,4.10
2022-12-06T04:31:21.705Z,4.30
2022-12-06T04:34:09.739Z,4.70
2022-12-06T04:36:55.618Z,4.47
2022-12-06T04:39:23.703Z,4.70
2022-12-06T04:42:09.390Z,4.43
2022-12-06T04:44:37.312Z,4.50
2022-12-06T04:47:06.025Z,4.07
2022-12-06T04:49:35.768Z,4.63
2022-12-06T04:52:04.305Z,5.50
2022-12-06T04:54:32.510Z,5.10
2022-12-06T04:57:00.617Z,4.77
2022-12-06T04:59:29.582Z,5.20
2022-12-06T05:01:58.119Z,5.20
2022-12-06T05:04:26.046Z,4.80
2022-12-06T05:06:55.314Z,5.10
2022-12-06T05:09:23.288Z,4.83
2022-12-06T05:11:51.102Z,5.03
2022-12-06T05:14:19.014Z,5.40
2022-12-06T05:16:47.064Z,5.23
2022-12-06T05:19:15.962Z,4.73
2022-12-06T05:21:43.789Z,6.17
2022-12-06T05:24:14.142Z,5.53
2022-12-06T05:26:42.347Z,5.40
2022-12-06T05:29:10.197Z,5.80
2022-12-06T05:31:38.065Z,5.50
2022-12-06T05:34:05.946Z,5.40
2022-12-06T05:36:33.847Z,5.00
2022-12-06T05:39:01.690Z,5.30
2022-12-06T05:41:30.949Z,6.87
2022-12-06T05:43:58.803Z,7.53
2022-12-06T05:46:26.705Z,6.60
2022-12-06T05:48:54.666Z,8.63
2022-12-06T05:51:22.482Z,7.57
2022-12-06T05:53:50.407Z,8.53
2022-12-06T05:56:18.240Z,8.23
2022-12-06T05:58:47.420Z,8.37
2022-12-06T06:01:15.290Z,9.40
2022-12-06T06:03:47.477Z,9.37
2022-12-06T06:06:16.401Z,10.27
2022-12-06T06:08:44.398Z,9.70
2022-12-06T06:11:12.391Z,9.50
2022-12-06T06:13:40.345Z,9.47
2022-12-06T06:16:09.738Z,11.03
2022-12-06T06:18:37.903Z,9.93
2022-12-06T06:21:06.030Z,11.03
2022-12-06T06:23:34.186Z,9.67
2022-12-06T06:26:06.935Z,9.33
2022-12-06T06:28:34.981Z,10.23
2022-12-06T06:31:03.769Z,9.40
2022-12-06T06:33:33.309Z,10.70
2022-12-06T06:36:01.143Z,11.13
2022-12-06T06:38:28.952Z,10.47
2022-12-06T06:40:56.791Z,10.30
2022-12-06T06:43:24.638Z,9.60
2022-12-06T06:45:57.379Z,10.00
2022-12-06T06:48:26.678Z,10.60
2022-12-06T06:50:57.853Z,9.20
2022-12-06T06:53:27.424Z,10.10
2022-12-06T06:55:55.345Z,9.68
2022-12-06T06:58:23.680Z,9.60
2022-12-06T07:00:53.925Z,9.10
2022-12-06T07:03:22.295Z,9.33
2022-12-06T07:05:53.275Z,9.00
2022-12-06T07:08:22.735Z,10.90
2022-12-06T07:10:51.112Z,9.30
2022-12-06T07:13:20.767Z,9.40
2022-12-06T07:15:48.951Z,9.88
2022-12-06T07:18:17.922Z,9.40
2022-12-06T07:20:46.167Z,9.80
2022-12-06T07:23:14.419Z,9.33
2022-12-06T07:25:43.606Z,9.50
2022-12-06T07:28:11.464Z,8.97
2022-12-06T07:30:39.507Z,11.53
2022-12-06T07:33:07.370Z,9.43
2022-12-06T07:36:10.176Z,10.67
2022-12-06T07:38:23.036Z,9.17
2022-12-06T07:41:07.455Z,9.20
2022-12-06T07:43:52.949Z,10.07
2022-12-06T07:46:20.829Z,10.05
2022-12-06T07:48:48.699Z,10.90
2022-12-06T07:51:16.655Z,10.07
2022-12-06T07:53:44.503Z,10.23
2022-12-06T07:56:13.864Z,9.17
2022-12-06T07:58:42.468Z,10.77
2022-12-06T08:01:10.401Z,9.10
2022-12-06T08:03:38.362Z,8.90
2022-12-06T08:06:06.716Z,9.10
2022-12-06T08:08:34.633Z,9.30
2022-12-06T08:11:03.631Z,9.03
2022-12-06T08:13:33.957Z,8.83
2022-12-06T08:16:05.034Z,9.67
2022-12-06T08:18:33.008Z,10.00
2022-12-06T08:21:00.907Z,9.97
2022-12-06T08:23:33.929Z,9.10
2022-12-06T08:26:05.435Z,10.40
2022-12-06T08:28:36.674Z,9.37
2022-12-06T08:31:07.938Z,8.60
2022-12-06T08:33:36.812Z,9.10
2022-12-06T08:36:09.412Z,8.43
2022-12-06T08:38:37.563Z,8.13
2022-12-06T08:41:06.454Z,8.60
2022-12-06T08:43:35.709Z,8.70
2022-12-06T08:46:03.628Z,9.30
2022-12-06T08:48:31.514Z,7.40
2022-12-06T08:51:03.039Z,7.90
2022-12-06T08:53:30.921Z,8.20
2022-12-06T08:56:02.764Z,8.03
2022-12-06T08:58:31.166Z,7.03
2022-12-06T09:01:00.388Z,8.03
2022-12-06T09:03:28.232Z,8.70
2022-12-06T09:05:56.064Z,7.78
2022-12-06T09:08:23.990Z,6.97
2022-12-06T09:10:51.903Z,7.90
2022-12-06T09:13:19.725Z,7.33
2022-12-06T09:15:47.645Z,6.80
2022-12-06T09:57:37.223Z,6.23
2022-12-06T10:00:11.266Z,5.57
2022-12-06T10:03:01.465Z,5.43
2022-12-06T10:05:34.520Z,7.30
2022-12-06T10:08:06.183Z,5.63
2022-12-06T10:10:38.074Z,5.43
2022-12-06T10:13:11.879Z,4.90
2022-12-06T10:15:46.178Z,5.33
2022-12-06T10:18:23.402Z,4.53
2022-12-06T10:20:53.359Z,4.50
2022-12-06T10:23:31.059Z,4.00
2022-12-06T10:26:02.868Z,4.40
2022-12-06T10:28:37.691Z,3.77
2022-12-06T10:31:10.529Z,4.03
2022-12-06T10:33:42.654Z,4.30
2022-12-06T10:36:11.628Z,3.80
2022-12-06T10:38:42.021Z,4.20
2022-12-06T10:41:15.011Z,3.90
2022-12-06T10:43:49.392Z,3.20
2022-12-06T10:46:39.189Z,2.93
2022-12-06T10:49:10.949Z,3.87
2022-12-06T10:51:43.405Z,2.97
2022-12-06T10:54:14.994Z,2.57
2022-12-06T10:56:43.995Z,3.13
2022-12-06T10:59:20.299Z,2.97
2022-12-06T11:01:48.771Z,2.83
2022-12-06T11:04:21.826Z,3.17
2022-12-06T11:06:54.723Z,3.57
2022-12-06T11:09:27.260Z,4.50
2022-12-06T11:11:55.565Z,4.20
2022-12-06T11:14:28.488Z,2.90
2022-12-06T11:16:59.099Z,3.20
2022-12-06T11:19:31.542Z,2.73
2022-12-06T11:22:02.161Z,2.97
2022-12-06T11:24:32.303Z,2.60
2022-12-06T11:27:04.570Z,2.83
2022-12-06T11:29:34.143Z,3.20
2022-12-06T11:32:04.041Z,2.67
2022-12-06T11:34:33.541Z,2.67
2022-12-06T11:37:03.107Z,2.70
2022-12-06T11:39:32.755Z,2.60
2022-12-06T11:42:03.165Z,3.20
2022-12-06T11:44:36.263Z,2.63
2022-12-06T11:47:07.330Z,3.00
2022-12-06T11:49:36.544Z,3.17
2022-12-06T11:52:06.760Z,2.40
2022-12-06T11:54:36.605Z,2.23
2022-12-06T11:57:14.838Z,2.23
2022-12-06T12:00:01.415Z,2.43
2022-12-06T12:02:33.614Z,2.73
2022-12-06T12:05:09.735Z,2.30
2022-12-06T12:07:39.836Z,2.27
2022-12-06T12:10:25.028Z,3.00
2022-12-06T12:13:11.278Z,2.93
2022-12-06T12:15:40.058Z,3.00
2022-12-06T12:18:21.880Z,2.87
2022-12-06T12:20:50.889Z,3.60
2022-12-06T12:23:20.403Z,3.57
2022-12-06T12:26:00.354Z,3.67
2022-12-06T12:28:29.388Z,3.53
2022-12-06T12:30:58.242Z,4.00
2022-12-06T12:33:28.227Z,4.10
2022-12-06T12:35:58.256Z,4.10
2022-12-06T12:38:35.651Z,4.70
2022-12-06T12:41:05.174Z,3.80
2022-12-06T12:43:35.088Z,3.30
2022-12-06T12:46:04.690Z,4.50
2022-12-06T12:48:34.807Z,3.93
2022-12-06T12:51:04.120Z,3.87
2022-12-06T12:53:33.184Z,3.60
2022-12-06T12:56:08.167Z,4.10
2022-12-06T12:58:36.559Z,3.50
2022-12-06T13:01:07.592Z,3.40
2022-12-06T13:03:52.861Z,3.90
2022-12-06T13:06:25.877Z,3.83
2022-12-06T13:08:54.336Z,4.10
2022-12-06T13:11:22.614Z,3.93
2022-12-06T13:13:52.460Z,3.47
2022-12-06T13:16:28.987Z,3.47
2022-12-06T13:19:00.476Z,4.30
2022-12-06T13:21:31.972Z,3.60
2022-12-06T13:24:04.299Z,8.80
2022-12-06T13:26:35.428Z,5.60
2022-12-06T13:29:06.760Z,4.20
2022-12-06T13:31:38.191Z,4.30
2022-12-06T13:34:09.681Z,4.83
2022-12-06T13:36:37.955Z,5.00
2022-12-06T13:39:21.087Z,8.27
2022-12-06T13:42:14.316Z,4.30
2022-12-06T13:44:43.093Z,3.27
2022-12-06T13:47:30.022Z,3.17
2022-12-06T13:50:00.008Z,4.00
2022-12-06T13:52:43.127Z,4.07
2022-12-06T13:55:35.297Z,4.10
2022-12-06T13:58:18.351Z,3.00
2022-12-06T14:00:50.285Z,3.20
2022-12-06T14:03:33.345Z,3.60
2022-12-06T14:06:12.260Z,3.63
2022-12-06T14:08:44.117Z,3.43
2022-12-06T14:11:20.674Z,4.10
2022-12-06T14:13:50.131Z,3.23
2022-12-06T14:16:22.591Z,3.40
2022-12-06T14:18:51.396Z,4.00
2022-12-06T14:21:25.772Z,3.93
2022-12-06T14:23:54.032Z,3.30
2022-12-06T14:26:23.535Z,3.03
2022-12-06T14:28:53.168Z,3.50
2022-12-06T14:31:24.030Z,3.37
2022-12-06T14:33:52.600Z,3.80
2022-12-06T14:36:27.083Z,3.70
2022-12-06T14:39:01.612Z,3.70
2022-12-06T14:41:48.577Z,3.90
2022-12-06T14:44:17.814Z,3.53
2022-12-06T14:46:46.723Z,4.20
2022-12-06T14:49:33.944Z,3.77
2022-12-06T14:52:03.937Z,3.60
2022-12-06T14:54:34.850Z,4.00
2022-12-06T14:57:03.275Z,3.83
2022-12-06T15:02:23.781Z,4.23
2022-12-06T15:04:52.099Z,4.60
2022-12-06T15:07:44.501Z,4.30
2022-12-06T15:10:22.692Z,4.37
2022-12-06T15:12:56.874Z,4.50
2022-12-06T15:15:35.270Z,4.23
2022-12-06T15:18:12.134Z,4.40
2022-12-06T15:20:40.351Z,4.40
2022-12-06T15:23:28.336Z,4.00
2022-12-06T15:25:58.081Z,3.83
2022-12-06T15:28:26.291Z,3.73
2022-12-06T15:30:54.725Z,3.57
2022-12-06T15:33:23.790Z,3.57
2022-12-06T15:35:52.427Z,4.00
2022-12-06T15:38:20.756Z,4.93
2022-12-06T15:40:49.930Z,5.50
2022-12-06T15:43:24.986Z,15.37
2022-12-06T15:45:54.004Z,18.27
2022-12-06T15:48:22.501Z,19.50
2022-12-06T15:50:51.009Z,19.70
2022-12-06T15:53:20.183Z,17.37
2022-12-06T15:55:48.354Z,20.50
2022-12-06T15:58:16.612Z,25.83
2022-12-06T16:00:47.714Z,8.50
2022-12-06T16:03:16.022Z,3.67
2022-12-06T16:05:44.312Z,3.40
2022-12-06T16:08:12.563Z,3.90
2022-12-06T16:11:10.947Z,4.20
2022-12-06T16:13:31.181Z,3.87
2022-12-06T16:16:00.749Z,9.57
2022-12-06T16:18:29.048Z,10.17
2022-12-06T16:20:57.523Z,9.40
2022-12-06T16:24:11.820Z,9.30
2022-12-06T16:26:33.866Z,4.77
2022-12-06T16:29:02.816Z,4.10
2022-12-06T16:31:35.258Z,4.63
2022-12-06T16:34:06.557Z,4.60
2022-12-06T16:36:35.307Z,4.33
2022-12-06T16:39:05.554Z,4.50
2022-12-06T16:41:34.961Z,4.27
2022-12-06T16:44:03.756Z,3.87
2022-12-06T16:46:34.185Z,4.00
2022-12-06T16:49:36.679Z,4.03
2022-12-06T16:51:51.940Z,3.93
2022-12-06T16:54:20.086Z,4.57
2022-12-06T16:56:48.720Z,5.93
2022-12-06T16:59:17.678Z,5.57
2022-12-06T17:01:51.956Z,5.27
2022-12-06T17:04:20.675Z,4.93
2022-12-06T17:06:49.231Z,5.97
2022-12-06T17:09:17.680Z,5.80
2022-12-06T17:12:06.564Z,5.30
2022-12-06T17:14:36.078Z,5.13
2022-12-06T17:17:05.619Z,5.20
2022-12-06T17:19:34.562Z,4.77
2022-12-06T17:22:03.240Z,4.90
2022-12-06T17:24:32.687Z,5.60
2022-12-06T17:27:01.179Z,4.37
2022-12-06T17:29:29.942Z,3.90
2022-12-06T17:31:58.230Z,5.63
2022-12-06T17:34:27.909Z,4.90
2022-12-06T17:36:57.435Z,4.57
2022-12-06T17:39:25.768Z,5.50
2022-12-06T17:42:12.012Z,4.83
2022-12-06T17:44:40.532Z,4.87
2022-12-06T17:47:08.999Z,4.70
2022-12-06T17:49:38.556Z,5.13
2022-12-06T17:52:07.054Z,5.13
2022-12-06T17:54:35.240Z,5.60
2022-12-06T17:57:03.445Z,6.60
2022-12-06T17:59:32.636Z,6.77
2022-12-06T18:02:18.500Z,6.75
2022-12-06T18:04:48.709Z,7.07
2022-12-06T18:07:17.694Z,9.50
2022-12-06T18:09:45.955Z,10.97
2022-12-06T18:12:15.024Z,7.73
2022-12-06T18:14:43.241Z,7.53
2022-12-06T18:17:11.406Z,10.67
2022-12-06T18:19:40.779Z,8.27
2022-12-06T18:22:10.369Z,8.73
2022-12-06T18:24:38.595Z,10.30
2022-12-06T18:27:07.284Z,14.60
2022-12-06T18:29:36.095Z,16.23
2022-12-06T18:32:04.365Z,8.20
2022-12-06T18:34:32.706Z,7.50
2022-12-06T18:37:01.222Z,7.70
2022-12-06T18:39:30.823Z,6.10
2022-12-06T18:41:59.014Z,5.40
2022-12-06T18:44:27.343Z,6.67
2022-12-06T18:46:55.548Z,5.30
2022-12-06T18:49:23.701Z,5.50
2022-12-06T18:51:51.875Z,6.63
2022-12-06T18:54:20.438Z,5.93
2022-12-06T18:56:50.049Z,5.97
2022-12-06T18:59:22.018Z,5.07
2022-12-06T19:01:52.783Z,5.07
2022-12-06T19:04:20.988Z,6.70
2022-12-06T19:06:49.110Z,5.70
2022-12-06T19:09:17.296Z,8.60
2022-12-06T19:11:46.881Z,6.83
2022-12-06T19:14:16.842Z,6.33
2022-12-06T19:16:45.696Z,6.70
2022-12-06T19:19:16.758Z,6.70
2022-12-06T19:21:45.503Z,5.20
2022-12-06T19:24:15.458Z,5.43
2022-12-06T19:26:43.730Z,5.70
2022-12-06T19:29:11.977Z,5.87
2022-12-06T19:31:41.510Z,6.10
2022-12-06T19:34:14.599Z,6.43
2022-12-06T19:36:42.771Z,5.65
2022-12-06T19:39:12.049Z,6.20
2022-12-06T19:41:54.222Z,5.63
2022-12-06T19:44:22.380Z,7.60
2022-12-06T19:46:52.398Z,5.90
2022-12-06T19:49:21.540Z,6.10
2022-12-06T19:51:50.318Z,5.70
2022-12-06T19:54:18.957Z,6.57
2022-12-06T19:56:47.160Z,6.40
2022-12-06T19:59:15.399Z,7.50
2022-12-06T20:01:44.592Z,6.60
2022-12-06T20:04:16.687Z,7.10
2022-12-06T20:06:45.227Z,6.53
2022-12-06T20:09:13.991Z,7.73
2022-12-06T20:12:02.000Z,7.50
2022-12-06T20:14:31.201Z,6.80
2022-12-06T20:16:59.346Z,8.37
2022-12-06T20:19:28.871Z,7.30
2022-12-06T20:21:57.046Z,6.97
2022-12-06T20:24:25.581Z,8.00
2022-12-06T20:26:54.669Z,7.90
2022-12-06T20:29:23.540Z,7.97
2022-12-06T20:31:52.226Z,7.07
2022-12-06T20:34:20.949Z,7.47
2022-12-06T20:36:50.487Z,7.20
2022-12-06T20:39:20.350Z,7.50
2022-12-06T20:41:49.031Z,7.60
2022-12-06T20:44:17.371Z,8.27
2022-12-06T20:46:46.105Z,7.53
2022-12-06T20:49:16.135Z,7.47
2022-12-06T20:51:48.234Z,9.13
2022-12-06T20:54:22.373Z,8.07
2022-12-06T20:56:53.211Z,7.83
2022-12-06T20:59:21.784Z,9.03
2022-12-06T21:01:50.132Z,8.07
2022-12-06T21:04:19.025Z,7.90
2022-12-06T21:06:47.221Z,6.73
2022-12-06T21:09:15.461Z,6.67
2022-12-06T21:11:45.065Z,6.50
2022-12-06T21:14:14.269Z,9.97
2022-12-06T21:16:42.958Z,8.03
2022-12-06T21:19:13.189Z,8.67
2022-12-06T21:21:41.993Z,7.80
2022-12-06T21:24:16.458Z,9.23
2022-12-06T21:26:46.814Z,9.23
2022-12-06T21:29:16.874Z,8.37
2022-12-06T21:31:45.440Z,9.93
2022-12-06T21:34:14.051Z,10.37
2022-12-06T21:36:42.414Z,9.83
2022-12-06T21:39:11.879Z,9.10
2022-12-06T21:41:40.323Z,10.33
2022-12-06T21:44:09.872Z,9.57
2022-12-06T21:46:38.158Z,10.37
2022-12-06T21:49:06.387Z,8.80
2022-12-06T21:51:34.601Z,8.73
2022-12-06T21:54:03.230Z,8.30
2022-12-06T21:56:33.556Z,8.97
2022-12-06T21:59:01.762Z,8.90
2022-12-06T22:01:32.488Z,8.50
2022-12-06T22:04:02.162Z,8.60
2022-12-06T22:06:31.342Z,9.63
2022-12-06T22:09:00.776Z,9.87
2022-12-06T22:11:29.451Z,10.77
2022-12-06T22:13:58.706Z,11.20
2022-12-06T22:16:27.306Z,10.60
2022-12-06T22:18:56.921Z,11.17
2022-12-06T22:21:26.827Z,11.10
2022-12-06T22:23:54.996Z,10.73
2022-12-06T22:26:23.776Z,9.77
2022-12-06T22:28:52.439Z,10.67
2022-12-06T22:31:21.454Z,10.93
2022-12-06T22:33:50.301Z,9.70
2022-12-06T22:36:20.148Z,10.30
2022-12-06T22:38:50.104Z,10.17
2022-12-06T22:41:18.744Z,10.50
2022-12-06T22:43:47.352Z,9.83
2022-12-06T22:46:16.795Z,10.47
2022-12-06T22:48:45.272Z,11.27
2022-12-06T22:51:14.484Z,11.20
2022-12-06T22:53:44.660Z,11.13
2022-12-06T22:56:13.290Z,12.27
2022-12-06T22:58:41.496Z,11.43
2022-12-06T23:01:15.953Z,14.93
2022-12-06T23:03:45.267Z,11.50
2022-12-06T23:06:13.957Z,19.50
2022-12-06T23:08:43.583Z,20.80
2022-12-06T23:11:12.864Z,13.60
2022-12-06T23:13:41.218Z,10.57
2022-12-06T23:16:13.234Z,9.50
2022-12-06T23:18:41.577Z,10.57
2022-12-06T23:21:10.757Z,12.80
2022-12-06T23:23:40.050Z,11.97
2022-12-06T23:26:09.932Z,11.50
2022-12-06T23:28:38.439Z,10.17
2022-12-06T23:31:07.255Z,10.40
2022-12-06T23:33:35.965Z,9.70
2022-12-06T23:36:05.435Z,11.00
2022-12-06T23:38:33.792Z,9.60
2022-12-06T23:41:05.708Z,11.50
2022-12-06T23:43:35.651Z,11.77
2022-12-06T23:46:07.449Z,12.40
2022-12-06T23:48:36.639Z,11.13
2022-12-06T23:51:06.157Z,13.47
2022-12-06T23:53:34.774Z,26.37
2022-12-06T23:56:03.825Z,13.20
2022-12-06T23:58:32.049Z,12.70
